sensor_id;sensor_type;location;lat;lon;timestamp;P1;durP1;ratioP1;P2;durP2;ratioP2
17983;SDS011;9117;52.420;20.728;2023-03-23T00:01:31;50.90;;;25.10;;
17983;SDS011;9117;52.420;20.728;2023-03-23T00:04:02;52.77;;;26.17;;
17983;SDS011;9117;52.420;20.728;2023-03-23T00:06:30;51.40;;;25.15;;
17983;SDS011;9117;52.420;20.728;2023-03-23T00:08:58;55.63;;;26.27;;
17983;SDS011;9117;52.420;20.728;2023-03-23T00:11:30;47.33;;;25.23;;
17983;SDS011;9117;52.420;20.728;2023-03-23T00:13:58;53.67;;;25.37;;
17983;SDS011;9117;52.420;20.728;2023-03-23T00:16:28;45.47;;;23.83;;
17983;SDS011;9117;52.420;20.728;2023-03-23T00:18:58;50.03;;;25.27;;
17983;SDS011;9117;52.420;20.728;2023-03-23T00:21:28;48.67;;;24.50;;
17983;SDS011;9117;52.420;20.728;2023-03-23T00:24:00;49.53;;;25.00;;
17983;SDS011;9117;52.420;20.728;2023-03-23T00:26:30;50.00;;;24.30;;
17983;SDS011;9117;52.420;20.728;2023-03-23T00:28:59;48.90;;;23.87;;
17983;SDS011;9117;52.420;20.728;2023-03-23T00:31:27;49.10;;;24.17;;
17983;SDS011;9117;52.420;20.728;2023-03-23T00:33:57;51.25;;;25.20;;
17983;SDS011;9117;52.420;20.728;2023-03-23T00:36:26;58.57;;;26.30;;
17983;SDS011;9117;52.420;20.728;2023-03-23T00:38:53;46.13;;;24.17;;
17983;SDS011;9117;52.420;20.728;2023-03-23T00:41:25;47.25;;;25.10;;
17983;SDS011;9117;52.420;20.728;2023-03-23T00:43:55;52.30;;;25.42;;
17983;SDS011;9117;52.420;20.728;2023-03-23T00:46:23;49.65;;;25.10;;
17983;SDS011;9117;52.420;20.728;2023-03-23T00:48:50;50.67;;;25.60;;
17983;SDS011;9117;52.420;20.728;2023-03-23T00:51:18;47.77;;;25.60;;
17983;SDS011;9117;52.420;20.728;2023-03-23T00:53:45;51.87;;;25.63;;
17983;SDS011;9117;52.420;20.728;2023-03-23T00:56:13;48.90;;;24.73;;
17983;SDS011;9117;52.420;20.728;2023-03-23T00:58:41;49.28;;;24.77;;
17983;SDS011;9117;52.420;20.728;2023-03-23T01:01:09;52.70;;;26.37;;
17983;SDS011;9117;52.420;20.728;2023-03-23T01:03:36;62.95;;;28.70;;
17983;SDS011;9117;52.420;20.728;2023-03-23T01:06:04;57.83;;;28.55;;
17983;SDS011;9117;52.420;20.728;2023-03-23T01:08:33;54.88;;;26.70;;
17983;SDS011;9117;52.420;20.728;2023-03-23T01:11:05;59.90;;;29.13;;
17983;SDS011;9117;52.420;20.728;2023-03-23T01:13:33;55.63;;;27.00;;
17983;SDS011;9117;52.420;20.728;2023-03-23T01:16:01;58.35;;;28.23;;
17983;SDS011;9117;52.420;20.728;2023-03-23T01:18:30;60.10;;;29.13;;
17983;SDS011;9117;52.420;20.728;2023-03-23T01:20:57;52.53;;;26.93;;
17983;SDS011;9117;52.420;20.728;2023-03-23T01:23:31;67.03;;;29.77;;
17983;SDS011;9117;52.420;20.728;2023-03-23T01:26:02;65.50;;;29.83;;
17983;SDS011;9117;52.420;20.728;2023-03-23T01:28:30;60.10;;;28.30;;
17983;SDS011;9117;52.420;20.728;2023-03-23T01:30:59;58.77;;;27.83;;
17983;SDS011;9117;52.420;20.728;2023-03-23T01:33:27;58.77;;;28.37;;
17983;SDS011;9117;52.420;20.728;2023-03-23T01:35:55;55.33;;;25.30;;
17983;SDS011;9117;52.420;20.728;2023-03-23T01:38:23;54.73;;;25.40;;
17983;SDS011;9117;52.420;20.728;2023-03-23T01:40:50;45.23;;;23.60;;
17983;SDS011;9117;52.420;20.728;2023-03-23T01:43:17;49.07;;;23.07;;
17983;SDS011;9117;52.420;20.728;2023-03-23T01:45:44;49.23;;;24.97;;
17983;SDS011;9117;52.420;20.728;2023-03-23T01:48:13;50.53;;;23.73;;
17983;SDS011;9117;52.420;20.728;2023-03-23T01:50:48;45.80;;;23.83;;
17983;SDS011;9117;52.420;20.728;2023-03-23T01:53:20;47.97;;;24.37;;
17983;SDS011;9117;52.420;20.728;2023-03-23T01:55:50;51.50;;;25.30;;
17983;SDS011;9117;52.420;20.728;2023-03-23T01:58:21;45.20;;;23.37;;
17983;SDS011;9117;52.420;20.728;2023-03-23T02:00:52;46.80;;;22.70;;
17983;SDS011;9117;52.420;20.728;2023-03-23T02:03:21;50.63;;;23.40;;
17983;SDS011;9117;52.420;20.728;2023-03-23T02:05:49;51.77;;;22.90;;
17983;SDS011;9117;52.420;20.728;2023-03-23T02:08:17;48.17;;;24.37;;
17983;SDS011;9117;52.420;20.728;2023-03-23T02:10:46;46.97;;;23.00;;
17983;SDS011;9117;52.420;20.728;2023-03-23T02:13:13;51.77;;;23.60;;
17983;SDS011;9117;52.420;20.728;2023-03-23T02:15:48;46.77;;;23.13;;
17983;SDS011;9117;52.420;20.728;2023-03-23T02:18:25;48.33;;;22.50;;
17983;SDS011;9117;52.420;20.728;2023-03-23T02:27:08;48.73;;;22.43;;
17983;SDS011;9117;52.420;20.728;2023-03-23T02:29:49;45.30;;;22.03;;
17983;SDS011;9117;52.420;20.728;2023-03-23T02:32:35;44.33;;;22.73;;
17983;SDS011;9117;52.420;20.728;2023-03-23T02:35:21;47.13;;;22.70;;
17983;SDS011;9117;52.420;20.728;2023-03-23T02:37:55;42.77;;;21.50;;
17983;SDS011;9117;52.420;20.728;2023-03-23T02:40:27;48.13;;;21.40;;
17983;SDS011;9117;52.420;20.728;2023-03-23T02:42:59;48.73;;;23.07;;
17983;SDS011;9117;52.420;20.728;2023-03-23T02:45:28;43.13;;;22.17;;
17983;SDS011;9117;52.420;20.728;2023-03-23T02:47:57;42.57;;;21.70;;
17983;SDS011;9117;52.420;20.728;2023-03-23T02:50:27;47.43;;;22.80;;
17983;SDS011;9117;52.420;20.728;2023-03-23T02:52:56;41.13;;;20.83;;
17983;SDS011;9117;52.420;20.728;2023-03-23T02:55:25;42.83;;;21.90;;
17983;SDS011;9117;52.420;20.728;2023-03-23T02:57:55;44.23;;;22.90;;
17983;SDS011;9117;52.420;20.728;2023-03-23T03:00:23;42.80;;;21.80;;
17983;SDS011;9117;52.420;20.728;2023-03-23T03:02:50;43.13;;;22.50;;
17983;SDS011;9117;52.420;20.728;2023-03-23T03:05:26;43.90;;;23.17;;
17983;SDS011;9117;52.420;20.728;2023-03-23T03:08:04;45.10;;;21.53;;
17983;SDS011;9117;52.420;20.728;2023-03-23T03:10:40;44.57;;;22.43;;
17983;SDS011;9117;52.420;20.728;2023-03-23T03:13:14;44.83;;;22.70;;
17983;SDS011;9117;52.420;20.728;2023-03-23T03:16:04;44.13;;;23.20;;
17983;SDS011;9117;52.420;20.728;2023-03-23T03:18:37;44.23;;;22.03;;
17983;SDS011;9117;52.420;20.728;2023-03-23T03:21:12;44.83;;;22.33;;
17983;SDS011;9117;52.420;20.728;2023-03-23T03:23:41;40.40;;;22.10;;
17983;SDS011;9117;52.420;20.728;2023-03-23T03:26:11;43.57;;;22.43;;
17983;SDS011;9117;52.420;20.728;2023-03-23T03:28:42;42.87;;;22.47;;
17983;SDS011;9117;52.420;20.728;2023-03-23T03:31:13;45.57;;;23.57;;
17983;SDS011;9117;52.420;20.728;2023-03-23T03:33:43;46.33;;;22.67;;
17983;SDS011;9117;52.420;20.728;2023-03-23T03:36:15;40.17;;;21.87;;
17983;SDS011;9117;52.420;20.728;2023-03-23T03:38:46;44.20;;;23.13;;
17983;SDS011;9117;52.420;20.728;2023-03-23T03:41:15;44.53;;;23.17;;
17983;SDS011;9117;52.420;20.728;2023-03-23T03:43:43;45.63;;;21.07;;
17983;SDS011;9117;52.420;20.728;2023-03-23T03:46:10;46.07;;;23.50;;
17983;SDS011;9117;52.420;20.728;2023-03-23T03:48:37;44.53;;;23.00;;
17983;SDS011;9117;52.420;20.728;2023-03-23T03:51:04;44.47;;;23.00;;
17983;SDS011;9117;52.420;20.728;2023-03-23T03:53:33;51.63;;;23.90;;
17983;SDS011;9117;52.420;20.728;2023-03-23T03:56:00;45.57;;;23.30;;
17983;SDS011;9117;52.420;20.728;2023-03-23T03:58:28;47.13;;;23.60;;
17983;SDS011;9117;52.420;20.728;2023-03-23T04:00:57;47.60;;;23.77;;
17983;SDS011;9117;52.420;20.728;2023-03-23T04:03:25;43.83;;;23.27;;
17983;SDS011;9117;52.420;20.728;2023-03-23T04:05:52;44.13;;;23.57;;
17983;SDS011;9117;52.420;20.728;2023-03-23T04:08:21;47.10;;;23.20;;
17983;SDS011;9117;52.420;20.728;2023-03-23T04:10:50;47.60;;;22.87;;
17983;SDS011;9117;52.420;20.728;2023-03-23T04:13:17;50.03;;;25.07;;
17983;SDS011;9117;52.420;20.728;2023-03-23T04:15:45;48.90;;;22.50;;
17983;SDS011;9117;52.420;20.728;2023-03-23T04:18:13;46.00;;;24.03;;
17983;SDS011;9117;52.420;20.728;2023-03-23T04:20:42;48.63;;;24.10;;
17983;SDS011;9117;52.420;20.728;2023-03-23T04:23:12;47.77;;;22.63;;
17983;SDS011;9117;52.420;20.728;2023-03-23T04:25:39;50.63;;;23.53;;
17983;SDS011;9117;52.420;20.728;2023-03-23T04:28:09;50.07;;;24.40;;
17983;SDS011;9117;52.420;20.728;2023-03-23T04:30:36;46.57;;;22.13;;
17983;SDS011;9117;52.420;20.728;2023-03-23T04:33:04;43.30;;;23.17;;
17983;SDS011;9117;52.420;20.728;2023-03-23T04:35:31;43.33;;;22.53;;
17983;SDS011;9117;52.420;20.728;2023-03-23T04:37:59;44.90;;;22.80;;
17983;SDS011;9117;52.420;20.728;2023-03-23T04:40:26;46.43;;;22.27;;
17983;SDS011;9117;52.420;20.728;2023-03-23T04:42:53;52.03;;;23.67;;
17983;SDS011;9117;52.420;20.728;2023-03-23T04:45:24;70.67;;;27.53;;
17983;SDS011;9117;52.420;20.728;2023-03-23T04:47:51;105.50;;;36.43;;
17983;SDS011;9117;52.420;20.728;2023-03-23T04:50:23;64.50;;;28.53;;
17983;SDS011;9117;52.420;20.728;2023-03-23T04:52:52;50.53;;;24.00;;
17983;SDS011;9117;52.420;20.728;2023-03-23T04:55:23;55.43;;;24.73;;
17983;SDS011;9117;52.420;20.728;2023-03-23T04:58:02;47.43;;;22.93;;
17983;SDS011;9117;52.420;20.728;2023-03-23T05:00:31;45.73;;;24.37;;
17983;SDS011;9117;52.420;20.728;2023-03-23T05:02:58;44.57;;;22.70;;
17983;SDS011;9117;52.420;20.728;2023-03-23T05:05:26;44.33;;;22.40;;
17983;SDS011;9117;52.420;20.728;2023-03-23T05:07:55;42.50;;;22.77;;
17983;SDS011;9117;52.420;20.728;2023-03-23T05:10:23;49.00;;;23.43;;
17983;SDS011;9117;52.420;20.728;2023-03-23T05:12:52;43.43;;;22.37;;
17983;SDS011;9117;52.420;20.728;2023-03-23T05:15:19;46.30;;;22.00;;
17983;SDS011;9117;52.420;20.728;2023-03-23T05:17:50;49.33;;;22.70;;
17983;SDS011;9117;52.420;20.728;2023-03-23T05:20:17;45.07;;;23.17;;
17983;SDS011;9117;52.420;20.728;2023-03-23T05:22:45;42.97;;;22.33;;
17983;SDS011;9117;52.420;20.728;2023-03-23T05:25:14;44.30;;;22.33;;
17983;SDS011;9117;52.420;20.728;2023-03-23T05:27:44;42.47;;;22.23;;
17983;SDS011;9117;52.420;20.728;2023-03-23T05:30:14;43.77;;;21.90;;
17983;SDS011;9117;52.420;20.728;2023-03-23T05:32:42;44.97;;;20.70;;
17983;SDS011;9117;52.420;20.728;2023-03-23T05:35:11;44.57;;;22.93;;
17983;SDS011;9117;52.420;20.728;2023-03-23T05:37:39;42.37;;;21.50;;
17983;SDS011;9117;52.420;20.728;2023-03-23T05:40:06;44.83;;;21.50;;
17983;SDS011;9117;52.420;20.728;2023-03-23T05:42:40;41.90;;;20.63;;
17983;SDS011;9117;52.420;20.728;2023-03-23T05:45:10;41.37;;;20.70;;
17983;SDS011;9117;52.420;20.728;2023-03-23T05:47:38;46.60;;;21.10;;
17983;SDS011;9117;52.420;20.728;2023-03-23T05:50:06;40.93;;;20.03;;
17983;SDS011;9117;52.420;20.728;2023-03-23T05:52:37;43.60;;;20.43;;
17983;SDS011;9117;52.420;20.728;2023-03-23T05:55:05;39.90;;;20.80;;
17983;SDS011;9117;52.420;20.728;2023-03-23T05:57:34;37.87;;;19.47;;
17983;SDS011;9117;52.420;20.728;2023-03-23T06:00:01;40.10;;;19.50;;
17983;SDS011;9117;52.420;20.728;2023-03-23T06:02:38;43.47;;;19.80;;
17983;SDS011;9117;52.420;20.728;2023-03-23T06:05:09;39.13;;;19.93;;
17983;SDS011;9117;52.420;20.728;2023-03-23T06:07:38;42.37;;;20.23;;
17983;SDS011;9117;52.420;20.728;2023-03-23T06:10:05;38.60;;;18.50;;
17983;SDS011;9117;52.420;20.728;2023-03-23T06:12:34;41.57;;;19.47;;
17983;SDS011;9117;52.420;20.728;2023-03-23T06:15:01;40.80;;;19.60;;
17983;SDS011;9117;52.420;20.728;2023-03-23T06:17:29;37.70;;;18.17;;
17983;SDS011;9117;52.420;20.728;2023-03-23T06:19:56;39.77;;;19.10;;
17983;SDS011;9117;52.420;20.728;2023-03-23T06:22:23;35.13;;;18.20;;
17983;SDS011;9117;52.420;20.728;2023-03-23T06:24:51;36.00;;;19.37;;
17983;SDS011;9117;52.420;20.728;2023-03-23T06:27:18;38.13;;;17.90;;
17983;SDS011;9117;52.420;20.728;2023-03-23T06:29:46;43.30;;;20.60;;
17983;SDS011;9117;52.420;20.728;2023-03-23T06:32:13;43.73;;;19.83;;
17983;SDS011;9117;52.420;20.728;2023-03-23T06:34:41;36.03;;;17.70;;
17983;SDS011;9117;52.420;20.728;2023-03-23T06:37:09;33.97;;;17.57;;
17983;SDS011;9117;52.420;20.728;2023-03-23T06:39:37;31.57;;;16.37;;
17983;SDS011;9117;52.420;20.728;2023-03-23T06:42:08;31.97;;;15.33;;
17983;SDS011;9117;52.420;20.728;2023-03-23T06:44:36;32.50;;;16.13;;
17983;SDS011;9117;52.420;20.728;2023-03-23T06:47:03;34.50;;;15.40;;
17983;SDS011;9117;52.420;20.728;2023-03-23T06:49:31;35.70;;;16.70;;
17983;SDS011;9117;52.420;20.728;2023-03-23T06:51:58;32.37;;;15.13;;
17983;SDS011;9117;52.420;20.728;2023-03-23T06:54:26;33.10;;;14.87;;
17983;SDS011;9117;52.420;20.728;2023-03-23T06:56:54;33.60;;;14.77;;
17983;SDS011;9117;52.420;20.728;2023-03-23T06:59:22;25.90;;;14.43;;
17983;SDS011;9117;52.420;20.728;2023-03-23T07:01:50;23.67;;;13.83;;
17983;SDS011;9117;52.420;20.728;2023-03-23T07:04:17;28.90;;;13.63;;
17983;SDS011;9117;52.420;20.728;2023-03-23T07:06:44;30.23;;;13.37;;
17983;SDS011;9117;52.420;20.728;2023-03-23T07:09:12;23.63;;;12.70;;
17983;SDS011;9117;52.420;20.728;2023-03-23T07:11:39;24.13;;;13.20;;
17983;SDS011;9117;52.420;20.728;2023-03-23T07:14:06;25.23;;;13.00;;
17983;SDS011;9117;52.420;20.728;2023-03-23T07:16:35;23.67;;;13.35;;
17983;SDS011;9117;52.420;20.728;2023-03-23T07:19:02;25.10;;;12.75;;
17983;SDS011;9117;52.420;20.728;2023-03-23T07:21:29;25.08;;;11.70;;
17983;SDS011;9117;52.420;20.728;2023-03-23T07:23:56;28.25;;;13.77;;
17983;SDS011;9117;52.420;20.728;2023-03-23T07:26:23;26.25;;;13.05;;
17983;SDS011;9117;52.420;20.728;2023-03-23T07:28:50;21.92;;;11.70;;
17983;SDS011;9117;52.420;20.728;2023-03-23T07:31:17;23.08;;;12.38;;
17983;SDS011;9117;52.420;20.728;2023-03-23T07:33:46;23.67;;;12.38;;
17983;SDS011;9117;52.420;20.728;2023-03-23T07:36:13;22.52;;;11.32;;
17983;SDS011;9117;52.420;20.728;2023-03-23T07:38:40;21.67;;;11.48;;
17983;SDS011;9117;52.420;20.728;2023-03-23T07:41:09;20.45;;;10.60;;
17983;SDS011;9117;52.420;20.728;2023-03-23T07:43:36;20.00;;;10.50;;
17983;SDS011;9117;52.420;20.728;2023-03-23T07:46:03;18.63;;;9.70;;
17983;SDS011;9117;52.420;20.728;2023-03-23T07:48:31;18.98;;;9.68;;
17983;SDS011;9117;52.420;20.728;2023-03-23T07:50:59;21.08;;;10.68;;
17983;SDS011;9117;52.420;20.728;2023-03-23T07:53:27;16.73;;;9.38;;
17983;SDS011;9117;52.420;20.728;2023-03-23T07:55:54;20.75;;;8.48;;
17983;SDS011;9117;52.420;20.728;2023-03-23T07:58:21;18.70;;;8.85;;
17983;SDS011;9117;52.420;20.728;2023-03-23T08:00:48;20.77;;;9.15;;
17983;SDS011;9117;52.420;20.728;2023-03-23T08:03:15;15.98;;;8.40;;
17983;SDS011;9117;52.420;20.728;2023-03-23T08:05:43;17.65;;;8.88;;
17983;SDS011;9117;52.420;20.728;2023-03-23T08:08:12;16.80;;;9.02;;
17983;SDS011;9117;52.420;20.728;2023-03-23T08:10:39;14.20;;;7.75;;
17983;SDS011;9117;52.420;20.728;2023-03-23T08:13:06;18.73;;;8.63;;
17983;SDS011;9117;52.420;20.728;2023-03-23T08:15:34;14.68;;;8.57;;
17983;SDS011;9117;52.420;20.728;2023-03-23T08:18:03;18.33;;;8.93;;
17983;SDS011;9117;52.420;20.728;2023-03-23T08:20:31;17.95;;;8.95;;
17983;SDS011;9117;52.420;20.728;2023-03-23T08:22:58;15.50;;;7.80;;
17983;SDS011;9117;52.420;20.728;2023-03-23T08:25:29;16.65;;;8.38;;
17983;SDS011;9117;52.420;20.728;2023-03-23T08:27:57;15.82;;;8.27;;
17983;SDS011;9117;52.420;20.728;2023-03-23T08:30:26;24.27;;;8.45;;
17983;SDS011;9117;52.420;20.728;2023-03-23T08:32:55;15.05;;;7.68;;
17983;SDS011;9117;52.420;20.728;2023-03-23T08:35:23;13.07;;;7.25;;
17983;SDS011;9117;52.420;20.728;2023-03-23T08:37:50;13.77;;;7.55;;
17983;SDS011;9117;52.420;20.728;2023-03-23T08:40:20;15.70;;;7.40;;
17983;SDS011;9117;52.420;20.728;2023-03-23T08:42:50;13.00;;;7.18;;
17983;SDS011;9117;52.420;20.728;2023-03-23T08:45:20;15.32;;;7.70;;
17983;SDS011;9117;52.420;20.728;2023-03-23T08:47:49;13.25;;;7.68;;
17983;SDS011;9117;52.420;20.728;2023-03-23T08:50:20;15.02;;;8.35;;
17983;SDS011;9117;52.420;20.728;2023-03-23T08:52:49;14.98;;;8.07;;
17983;SDS011;9117;52.420;20.728;2023-03-23T08:55:18;16.75;;;7.55;;
17983;SDS011;9117;52.420;20.728;2023-03-23T08:57:45;19.23;;;7.78;;
17983;SDS011;9117;52.420;20.728;2023-03-23T09:00:15;16.52;;;8.10;;
17983;SDS011;9117;52.420;20.728;2023-03-23T09:02:44;14.02;;;7.15;;
17983;SDS011;9117;52.420;20.728;2023-03-23T09:05:13;13.05;;;7.38;;
17983;SDS011;9117;52.420;20.728;2023-03-23T09:07:42;13.95;;;7.20;;
17983;SDS011;9117;52.420;20.728;2023-03-23T09:10:11;16.63;;;7.78;;
17983;SDS011;9117;52.420;20.728;2023-03-23T09:12:39;16.30;;;8.05;;
17983;SDS011;9117;52.420;20.728;2023-03-23T09:15:07;13.20;;;7.93;;
17983;SDS011;9117;52.420;20.728;2023-03-23T09:17:38;16.83;;;8.40;;
17983;SDS011;9117;52.420;20.728;2023-03-23T09:20:09;12.95;;;8.40;;
17983;SDS011;9117;52.420;20.728;2023-03-23T09:22:38;12.98;;;8.05;;
17983;SDS011;9117;52.420;20.728;2023-03-23T09:25:06;13.52;;;8.00;;
17983;SDS011;9117;52.420;20.728;2023-03-23T09:27:35;13.98;;;8.77;;
17983;SDS011;9117;52.420;20.728;2023-03-23T09:30:08;14.73;;;7.97;;
17983;SDS011;9117;52.420;20.728;2023-03-23T09:32:38;15.75;;;7.75;;
17983;SDS011;9117;52.420;20.728;2023-03-23T09:35:07;16.20;;;8.18;;
17983;SDS011;9117;52.420;20.728;2023-03-23T09:37:36;14.40;;;8.70;;
17983;SDS011;9117;52.420;20.728;2023-03-23T09:40:04;12.45;;;7.60;;
17983;SDS011;9117;52.420;20.728;2023-03-23T09:42:38;14.38;;;8.15;;
17983;SDS011;9117;52.420;20.728;2023-03-23T09:45:16;11.43;;;7.22;;
17983;SDS011;9117;52.420;20.728;2023-03-23T09:47:54;11.75;;;6.85;;
17983;SDS011;9117;52.420;20.728;2023-03-23T09:50:41;10.95;;;6.50;;
17983;SDS011;9117;52.420;20.728;2023-03-23T09:53:13;14.80;;;6.88;;
17983;SDS011;9117;52.420;20.728;2023-03-23T09:55:44;11.93;;;6.45;;
17983;SDS011;9117;52.420;20.728;2023-03-23T09:58:15;11.80;;;6.25;;
17983;SDS011;9117;52.420;20.728;2023-03-23T10:00:51;11.43;;;6.20;;
17983;SDS011;9117;52.420;20.728;2023-03-23T10:03:24;11.13;;;6.38;;
17983;SDS011;9117;52.420;20.728;2023-03-23T10:05:53;16.88;;;6.18;;
17983;SDS011;9117;52.420;20.728;2023-03-23T10:08:22;10.15;;;5.22;;
17983;SDS011;9117;52.420;20.728;2023-03-23T10:10:57;10.73;;;6.22;;
17983;SDS011;9117;52.420;20.728;2023-03-23T10:13:35;12.63;;;5.25;;
17983;SDS011;9117;52.420;20.728;2023-03-23T10:16:19;9.70;;;5.18;;
17983;SDS011;9117;52.420;20.728;2023-03-23T10:18:51;9.20;;;5.00;;
17983;SDS011;9117;52.420;20.728;2023-03-23T10:21:24;8.07;;;5.10;;
17983;SDS011;9117;52.420;20.728;2023-03-23T10:23:56;8.75;;;5.07;;
17983;SDS011;9117;52.420;20.728;2023-03-23T10:26:29;9.35;;;5.07;;
17983;SDS011;9117;52.420;20.728;2023-03-23T10:29:12;6.05;;;4.40;;
17983;SDS011;9117;52.420;20.728;2023-03-23T10:31:45;12.45;;;3.70;;
17983;SDS011;9117;52.420;20.728;2023-03-23T10:34:19;8.13;;;3.95;;
17983;SDS011;9117;52.420;20.728;2023-03-23T10:36:54;6.78;;;4.13;;
17983;SDS011;9117;52.420;20.728;2023-03-23T10:39:27;7.45;;;4.60;;
17983;SDS011;9117;52.420;20.728;2023-03-23T10:41:59;7.63;;;4.65;;
17983;SDS011;9117;52.420;20.728;2023-03-23T10:44:32;6.93;;;4.32;;
17983;SDS011;9117;52.420;20.728;2023-03-23T10:47:00;7.95;;;4.40;;
17983;SDS011;9117;52.420;20.728;2023-03-23T10:49:32;6.00;;;4.15;;
17983;SDS011;9117;52.420;20.728;2023-03-23T10:52:06;8.93;;;4.88;;
17983;SDS011;9117;52.420;20.728;2023-03-23T10:54:46;8.52;;;4.38;;
17983;SDS011;9117;52.420;20.728;2023-03-23T10:57:22;10.13;;;4.70;;
17983;SDS011;9117;52.420;20.728;2023-03-23T10:59:57;9.98;;;4.75;;
17983;SDS011;9117;52.420;20.728;2023-03-23T11:02:26;8.07;;;3.80;;
17983;SDS011;9117;52.420;20.728;2023-03-23T11:04:59;4.65;;;2.90;;
17983;SDS011;9117;52.420;20.728;2023-03-23T11:07:29;6.28;;;3.08;;
17983;SDS011;9117;52.420;20.728;2023-03-23T11:10:05;9.00;;;4.40;;
17983;SDS011;9117;52.420;20.728;2023-03-23T11:12:43;6.72;;;3.55;;
17983;SDS011;9117;52.420;20.728;2023-03-23T11:15:20;8.93;;;3.50;;
17983;SDS011;9117;52.420;20.728;2023-03-23T11:17:55;4.80;;;3.30;;
17983;SDS011;9117;52.420;20.728;2023-03-23T11:20:25;8.07;;;3.70;;
17983;SDS011;9117;52.420;20.728;2023-03-23T11:22:53;8.27;;;4.05;;
17983;SDS011;9117;52.420;20.728;2023-03-23T11:25:21;9.60;;;3.53;;
17983;SDS011;9117;52.420;20.728;2023-03-23T11:27:49;4.93;;;3.28;;
17983;SDS011;9117;52.420;20.728;2023-03-23T11:30:21;6.70;;;3.25;;
17983;SDS011;9117;52.420;20.728;2023-03-23T11:32:52;6.03;;;3.40;;
17983;SDS011;9117;52.420;20.728;2023-03-23T11:35:21;9.13;;;3.90;;
17983;SDS011;9117;52.420;20.728;2023-03-23T11:37:53;4.63;;;3.50;;
17983;SDS011;9117;52.420;20.728;2023-03-23T11:40:23;7.60;;;3.80;;
17983;SDS011;9117;52.420;20.728;2023-03-23T11:42:56;6.72;;;3.85;;
17983;SDS011;9117;52.420;20.728;2023-03-23T11:45:30;4.60;;;3.00;;
17983;SDS011;9117;52.420;20.728;2023-03-23T11:48:01;6.18;;;3.58;;
17983;SDS011;9117;52.420;20.728;2023-03-23T11:50:44;5.57;;;3.90;;
17983;SDS011;9117;52.420;20.728;2023-03-23T11:53:19;6.70;;;3.65;;
17983;SDS011;9117;52.420;20.728;2023-03-23T11:55:56;7.25;;;3.65;;
17983;SDS011;9117;52.420;20.728;2023-03-23T11:58:31;6.00;;;3.42;;
17983;SDS011;9117;52.420;20.728;2023-03-23T12:01:00;9.70;;;3.65;;
17983;SDS011;9117;52.420;20.728;2023-03-23T12:06:34;5.28;;;2.63;;
17983;SDS011;9117;52.420;20.728;2023-03-23T12:09:13;5.97;;;2.10;;
17983;SDS011;9117;52.420;20.728;2023-03-23T12:11:53;6.82;;;2.13;;
17983;SDS011;9117;52.420;20.728;2023-03-23T12:14:32;6.68;;;2.13;;
17983;SDS011;9117;52.420;20.728;2023-03-23T12:17:11;3.88;;;1.95;;
17983;SDS011;9117;52.420;20.728;2023-03-23T12:22:39;3.88;;;1.50;;
17983;SDS011;9117;52.420;20.728;2023-03-23T12:25:18;6.63;;;1.98;;
17983;SDS011;9117;52.420;20.728;2023-03-23T12:28:01;4.72;;;1.67;;
17983;SDS011;9117;52.420;20.728;2023-03-23T12:30:34;3.47;;;1.75;;
17983;SDS011;9117;52.420;20.728;2023-03-23T12:33:11;2.97;;;1.60;;
17983;SDS011;9117;52.420;20.728;2023-03-23T12:35:49;3.90;;;1.60;;
17983;SDS011;9117;52.420;20.728;2023-03-23T12:38:32;5.68;;;1.80;;
17983;SDS011;9117;52.420;20.728;2023-03-23T12:41:15;11.80;;;2.00;;
17983;SDS011;9117;52.420;20.728;2023-03-23T12:43:48;5.25;;;1.80;;
17983;SDS011;9117;52.420;20.728;2023-03-23T12:46:39;4.03;;;2.00;;
17983;SDS011;9117;52.420;20.728;2023-03-23T12:49:22;8.13;;;2.75;;
17983;SDS011;9117;52.420;20.728;2023-03-23T12:51:57;3.95;;;2.10;;
17983;SDS011;9117;52.420;20.728;2023-03-23T12:54:28;3.85;;;1.90;;
17983;SDS011;9117;52.420;20.728;2023-03-23T12:57:00;7.03;;;2.17;;
17983;SDS011;9117;52.420;20.728;2023-03-23T12:59:35;6.30;;;2.53;;
17983;SDS011;9117;52.420;20.728;2023-03-23T13:02:10;6.70;;;2.50;;
17983;SDS011;9117;52.420;20.728;2023-03-23T13:04:44;6.72;;;2.50;;
17983;SDS011;9117;52.420;20.728;2023-03-23T13:07:15;7.22;;;2.38;;
17983;SDS011;9117;52.420;20.728;2023-03-23T13:09:48;5.00;;;3.20;;
17983;SDS011;9117;52.420;20.728;2023-03-23T13:12:21;6.75;;;2.80;;
17983;SDS011;9117;52.420;20.728;2023-03-23T13:14:53;6.88;;;2.88;;
17983;SDS011;9117;52.420;20.728;2023-03-23T13:17:31;10.20;;;3.72;;
17983;SDS011;9117;52.420;20.728;2023-03-23T13:20:13;9.13;;;2.50;;
17983;SDS011;9117;52.420;20.728;2023-03-23T13:22:50;7.20;;;2.22;;
17983;SDS011;9117;52.420;20.728;2023-03-23T13:25:24;11.55;;;2.88;;
17983;SDS011;9117;52.420;20.728;2023-03-23T13:28:12;5.40;;;2.65;;
17983;SDS011;9117;52.420;20.728;2023-03-23T13:30:41;6.88;;;2.72;;
17983;SDS011;9117;52.420;20.728;2023-03-23T13:33:20;5.70;;;2.70;;
17983;SDS011;9117;52.420;20.728;2023-03-23T13:35:48;5.22;;;2.28;;
17983;SDS011;9117;52.420;20.728;2023-03-23T13:38:18;4.93;;;2.50;;
17983;SDS011;9117;52.420;20.728;2023-03-23T13:40:50;7.80;;;2.63;;
17983;SDS011;9117;52.420;20.728;2023-03-23T13:43:27;7.97;;;3.03;;
17983;SDS011;9117;52.420;20.728;2023-03-23T13:46:05;5.25;;;3.08;;
17983;SDS011;9117;52.420;20.728;2023-03-23T13:48:41;6.43;;;3.03;;
17983;SDS011;9117;52.420;20.728;2023-03-23T13:51:24;5.97;;;3.28;;
17983;SDS011;9117;52.420;20.728;2023-03-23T13:54:14;6.40;;;3.00;;
17983;SDS011;9117;52.420;20.728;2023-03-23T13:56:52;7.65;;;3.08;;
17983;SDS011;9117;52.420;20.728;2023-03-23T13:59:30;5.15;;;2.95;;
17983;SDS011;9117;52.420;20.728;2023-03-23T14:05:07;5.45;;;2.95;;
17983;SDS011;9117;52.420;20.728;2023-03-23T14:07:51;7.28;;;3.10;;
17983;SDS011;9117;52.420;20.728;2023-03-23T14:10:24;6.18;;;3.03;;
17983;SDS011;9117;52.420;20.728;2023-03-23T14:12:57;8.80;;;3.22;;
17983;SDS011;9117;52.420;20.728;2023-03-23T14:15:29;8.48;;;3.28;;
17983;SDS011;9117;52.420;20.728;2023-03-23T14:17:57;6.10;;;3.80;;
17983;SDS011;9117;52.420;20.728;2023-03-23T14:20:30;8.93;;;3.58;;
17983;SDS011;9117;52.420;20.728;2023-03-23T14:22:59;9.15;;;3.25;;
17983;SDS011;9117;52.420;20.728;2023-03-23T14:25:27;7.57;;;3.90;;
17983;SDS011;9117;52.420;20.728;2023-03-23T14:27:57;6.13;;;3.47;;
17983;SDS011;9117;52.420;20.728;2023-03-23T14:30:25;8.05;;;4.15;;
17983;SDS011;9117;52.420;20.728;2023-03-23T14:33:06;6.85;;;3.90;;
17983;SDS011;9117;52.420;20.728;2023-03-23T14:35:34;5.97;;;3.50;;
17983;SDS011;9117;52.420;20.728;2023-03-23T14:38:03;7.28;;;4.20;;
17983;SDS011;9117;52.420;20.728;2023-03-23T14:40:33;8.07;;;3.97;;
17983;SDS011;9117;52.420;20.728;2023-03-23T14:43:00;7.38;;;4.07;;
17983;SDS011;9117;52.420;20.728;2023-03-23T14:45:28;8.63;;;4.07;;
17983;SDS011;9117;52.420;20.728;2023-03-23T14:47:57;16.27;;;5.53;;
17983;SDS011;9117;52.420;20.728;2023-03-23T14:50:27;6.35;;;3.70;;
17983;SDS011;9117;52.420;20.728;2023-03-23T14:53:00;7.10;;;4.13;;
17983;SDS011;9117;52.420;20.728;2023-03-23T14:55:30;6.80;;;3.92;;
17983;SDS011;9117;52.420;20.728;2023-03-23T14:58:05;6.90;;;3.80;;
17983;SDS011;9117;52.420;20.728;2023-03-23T15:00:37;6.80;;;2.97;;
17983;SDS011;9117;52.420;20.728;2023-03-23T15:03:10;10.80;;;3.60;;
17983;SDS011;9117;52.420;20.728;2023-03-23T15:05:41;6.82;;;3.88;;
17983;SDS011;9117;52.420;20.728;2023-03-23T15:08:12;8.50;;;3.53;;